createdAt,value
2018-05-13T00:00:49.234Z,0
2018-05-13T00:01:57.880Z,0
2018-05-13T00:03:06.527Z,0
2018-05-13T00:04:15.446Z,0
2018-05-13T00:05:24.121Z,0
2018-05-13T00:06:32.739Z,0
2018-05-13T00:07:41.385Z,0
2018-05-13T00:08:50.029Z,0
2018-05-13T00:09:58.679Z,0
2018-05-13T00:11:07.583Z,0
2018-05-13T00:12:16.230Z,0
2018-05-13T00:13:24.874Z,0
2018-05-13T00:14:33.532Z,0
2018-05-13T00:15:42.444Z,0
2018-05-13T00:16:51.086Z,0
2018-05-13T00:17:59.733Z,0
2018-05-13T00:19:08.379Z,0
2018-05-13T00:20:17.029Z,0
2018-05-13T00:21:25.675Z,0
2018-05-13T00:22:34.322Z,0
2018-05-13T00:23:42.965Z,0
2018-05-13T00:24:51.616Z,0
2018-05-13T00:26:00.261Z,0
2018-05-13T00:27:08.908Z,0
2018-05-13T00:28:17.545Z,0
2018-05-13T00:29:26.199Z,0
2018-05-13T00:30:34.842Z,0
2018-05-13T00:31:43.490Z,0
2018-05-13T00:32:52.397Z,0
2018-05-13T00:34:01.310Z,0
2018-05-13T00:35:09.968Z,0
2018-05-13T00:36:18.883Z,0
2018-05-13T00:37:27.548Z,0
2018-05-13T00:38:36.178Z,0
2018-05-13T00:39:44.828Z,0
2018-05-13T00:40:53.735Z,0
2018-05-13T00:42:02.393Z,0
2018-05-13T00:43:11.035Z,0
2018-05-13T00:44:19.686Z,0
2018-05-13T00:45:28.328Z,0
2018-05-13T00:46:36.983Z,0
2018-05-13T00:47:45.620Z,0
2018-05-13T00:48:54.544Z,0
2018-05-13T00:50:03.184Z,0
2018-05-13T00:51:11.837Z,0
2018-05-13T00:52:20.481Z,0
2018-05-13T00:53:29.122Z,0
2018-05-13T00:54:37.766Z,0
2018-05-13T00:55:46.410Z,0
2018-05-13T00:56:55.068Z,0
2018-05-13T00:58:03.708Z,0
2018-05-13T00:59:12.358Z,0
2018-05-13T01:00:20.997Z,0
2018-05-13T01:01:29.650Z,0
2018-05-13T01:02:38.291Z,0
2018-05-13T01:03:46.943Z,0
2018-05-13T01:04:56.111Z,0
2018-05-13T01:06:04.766Z,0
2018-05-13T01:07:13.411Z,0
2018-05-13T01:08:22.325Z,0
2018-05-13T01:09:31.230Z,0
2018-05-13T01:10:39.878Z,0
2018-05-13T01:11:48.529Z,0
2018-05-13T01:12:57.179Z,0
2018-05-13T01:14:06.092Z,0
2018-05-13T01:15:14.731Z,0
2018-05-13T01:16:23.381Z,0
2018-05-13T01:17:32.022Z,0
2018-05-13T01:18:40.676Z,0
2018-05-13T01:19:49.311Z,0
2018-05-13T01:20:57.966Z,0
2018-05-13T01:22:06.610Z,0
2018-05-13T01:23:15.259Z,0
2018-05-13T01:24:24.163Z,0
2018-05-13T01:25:32.811Z,0
2018-05-13T01:26:41.459Z,0
2018-05-13T01:27:50.101Z,0
2018-05-13T01:28:58.748Z,0
2018-05-13T01:30:07.399Z,0
2018-05-13T01:31:16.309Z,0
2018-05-13T01:32:24.957Z,0
2018-05-13T01:33:33.599Z,0
2018-05-13T01:34:42.257Z,0
2018-05-13T01:35:50.906Z,0
2018-05-13T01:36:59.815Z,0
2018-05-13T01:38:08.460Z,0
2018-05-13T01:39:17.372Z,0
2018-05-13T01:40:26.017Z,0
2018-05-13T01:41:34.669Z,0
2018-05-13T01:42:43.307Z,0
2018-05-13T01:43:52.237Z,0
2018-05-13T01:45:00.878Z,0
2018-05-13T01:46:09.530Z,0
2018-05-13T01:47:18.174Z,0
2018-05-13T01:48:26.819Z,0
2018-05-13T01:49:35.467Z,0
2018-05-13T01:50:44.113Z,0
2018-05-13T01:51:52.763Z,0
2018-05-13T01:53:02.035Z,0
2018-05-13T01:54:10.595Z,0
2018-05-13T01:55:19.236Z,0
2018-05-13T01:56:27.886Z,0
2018-05-13T01:57:36.531Z,0
2018-05-13T01:58:45.181Z,0
2018-05-13T01:59:53.817Z,0
2018-05-13T02:01:02.467Z,0
2018-05-13T02:02:11.109Z,0
2018-05-13T02:03:19.757Z,0
2018-05-13T02:04:28.664Z,0
2018-05-13T02:05:37.311Z,0
2018-05-13T02:06:45.956Z,0
2018-05-13T02:07:54.604Z,0
2018-05-13T02:09:03.250Z,0
2018-05-13T02:10:11.891Z,0
2018-05-13T02:11:20.804Z,0
2018-05-13T02:12:29.451Z,0
2018-05-13T02:13:38.105Z,0
2018-05-13T02:14:46.744Z,0
2018-05-13T02:15:55.657Z,0
2018-05-13T02:17:04.302Z,0
2018-05-13T02:18:12.954Z,0
2018-05-13T02:19:21.594Z,0
2018-05-13T02:20:30.242Z,0
2018-05-13T02:21:38.890Z,0
2018-05-13T02:22:47.541Z,0
2018-05-13T02:23:56.187Z,0
2018-05-13T02:25:04.834Z,0
2018-05-13T02:26:13.475Z,0
2018-05-13T02:27:22.119Z,0
2018-05-13T02:28:31.038Z,0
2018-05-13T02:29:39.680Z,0
2018-05-13T02:30:48.332Z,0
2018-05-13T02:31:57.238Z,0
2018-05-13T02:33:06.165Z,0
2018-05-13T02:34:14.812Z,0
2018-05-13T02:35:23.467Z,0
2018-05-13T02:36:32.100Z,0
2018-05-13T02:37:40.763Z,0
2018-05-13T02:38:49.669Z,0
2018-05-13T02:39:58.317Z,0
2018-05-13T02:41:07.217Z,0
2018-05-13T02:42:16.396Z,0
2018-05-13T02:43:25.049Z,0
2018-05-13T02:44:33.695Z,0
2018-05-13T02:45:42.610Z,0
2018-05-13T02:46:51.247Z,0
2018-05-13T02:48:00.164Z,0
2018-05-13T02:49:08.814Z,0
2018-05-13T02:50:17.468Z,0
2018-05-13T02:51:26.108Z,0
2018-05-13T02:52:34.764Z,0
2018-05-13T02:53:43.402Z,0
2018-05-13T02:54:52.320Z,0
2018-05-13T02:56:01.235Z,0
2018-05-13T02:57:10.163Z,0
2018-05-13T02:58:18.807Z,0
2018-05-13T02:59:27.462Z,0
2018-05-13T03:00:36.104Z,0
2018-05-13T03:01:44.749Z,0
2018-05-13T03:02:53.397Z,0
2018-05-13T03:04:02.049Z,0
2018-05-13T03:05:10.706Z,0
2018-05-13T03:06:19.356Z,0
2018-05-13T03:07:28.006Z,0
2018-05-13T03:08:36.912Z,0
2018-05-13T03:09:45.836Z,0
2018-05-13T03:10:54.745Z,0
2018-05-13T03:12:03.674Z,0
2018-05-13T03:13:12.318Z,0
2018-05-13T03:14:20.976Z,0
2018-05-13T03:15:29.628Z,0
2018-05-13T03:16:38.269Z,0
2018-05-13T03:17:47.186Z,0
2018-05-13T03:18:55.849Z,0
2018-05-13T03:20:04.487Z,0
2018-05-13T03:21:13.136Z,0
2018-05-13T03:22:21.787Z,0
2018-05-13T03:23:30.423Z,0
2018-05-13T03:24:39.078Z,0
2018-05-13T03:25:47.722Z,0
2018-05-13T03:26:56.359Z,0
2018-05-13T03:28:05.013Z,0
2018-05-13T03:29:13.655Z,0
2018-05-13T03:30:22.306Z,0
2018-05-13T03:31:30.951Z,0
2018-05-13T03:32:39.604Z,0
2018-05-13T03:33:48.248Z,0
2018-05-13T03:34:57.162Z,0
2018-05-13T03:36:05.800Z,0
2018-05-13T03:37:14.717Z,0
2018-05-13T03:38:23.375Z,0
2018-05-13T03:39:32.293Z,0
2018-05-13T03:40:40.938Z,0
2018-05-13T03:41:49.575Z,0
2018-05-13T03:42:58.229Z,0
2018-05-13T03:44:06.876Z,0
2018-05-13T03:45:15.525Z,0
2018-05-13T03:46:24.161Z,0
2018-05-13T03:47:32.810Z,0
2018-05-13T03:48:41.452Z,5
2018-05-13T03:49:50.109Z,5
2018-05-13T03:50:58.745Z,5
2018-05-13T03:52:07.393Z,5
2018-05-13T03:53:16.040Z,5
2018-05-13T03:54:24.690Z,0
2018-05-13T03:55:33.595Z,0
2018-05-13T03:56:42.241Z,0
2018-05-13T03:57:50.885Z,5
2018-05-13T03:58:59.789Z,5
2018-05-13T04:00:08.444Z,5
2018-05-13T04:01:17.083Z,5
2018-05-13T04:02:25.734Z,5
2018-05-13T04:03:34.371Z,5
2018-05-13T04:04:43.027Z,5
2018-05-13T04:05:51.667Z,5
2018-05-13T04:07:00.586Z,5
2018-05-13T04:08:09.226Z,5
2018-05-13T04:09:17.880Z,10
2018-05-13T04:10:26.525Z,10
2018-05-13T04:11:35.175Z,10
2018-05-13T04:12:43.809Z,10
2018-05-13T04:13:52.456Z,15
2018-05-13T04:15:01.106Z,15
2018-05-13T04:16:10.025Z,15
2018-05-13T04:17:18.681Z,15
2018-05-13T04:18:27.309Z,20
2018-05-13T04:19:35.956Z,20
2018-05-13T04:20:44.868Z,25
2018-05-13T04:21:53.524Z,25
2018-05-13T04:23:02.423Z,25
2018-05-13T04:24:11.072Z,25
2018-05-13T04:25:19.722Z,25
2018-05-13T04:26:28.373Z,25
2018-05-13T04:27:37.016Z,25
2018-05-13T04:28:45.663Z,25
2018-05-13T04:29:54.308Z,30
2018-05-13T04:31:03.227Z,30
2018-05-13T04:32:11.871Z,30
2018-05-13T04:33:20.518Z,30
2018-05-13T04:34:29.434Z,30
2018-05-13T04:35:38.084Z,30
2018-05-13T04:36:46.734Z,25
2018-05-13T04:37:55.384Z,25
2018-05-13T04:39:04.563Z,20
2018-05-13T04:40:13.205Z,20
2018-05-13T04:41:22.132Z,20
2018-05-13T04:42:30.779Z,20
2018-05-13T04:43:39.433Z,20
2018-05-13T04:44:48.412Z,20
2018-05-13T04:45:57.062Z,20
2018-05-13T04:47:05.705Z,20
2018-05-13T04:48:14.353Z,20
2018-05-13T04:49:22.995Z,20
2018-05-13T04:50:31.639Z,20
2018-05-13T04:51:40.284Z,20
2018-05-13T04:52:48.936Z,25
2018-05-13T04:53:57.580Z,25
2018-05-13T04:55:06.220Z,30
2018-05-13T04:56:15.129Z,30
2018-05-13T04:57:23.774Z,30
2018-05-13T04:58:32.695Z,25
2018-05-13T04:59:41.600Z,25
2018-05-13T05:00:50.250Z,25
2018-05-13T05:01:59.156Z,25
2018-05-13T05:03:07.807Z,25
2018-05-13T05:04:16.448Z,20
2018-05-13T05:05:25.098Z,20
2018-05-13T05:06:33.739Z,15
2018-05-13T05:07:42.386Z,15
2018-05-13T05:08:51.113Z,10
2018-05-13T05:09:59.719Z,10
2018-05-13T05:11:08.317Z,10
2018-05-13T05:12:17.229Z,10
2018-05-13T05:13:25.879Z,10
2018-05-13T05:14:34.524Z,10
2018-05-13T05:15:43.172Z,10
2018-05-13T05:16:52.074Z,15
2018-05-13T05:18:00.731Z,15
2018-05-13T05:19:09.381Z,15
2018-05-13T05:20:18.024Z,15
2018-05-13T05:21:26.662Z,15
2018-05-13T05:22:35.320Z,15
2018-05-13T05:23:43.960Z,20
2018-05-13T05:24:52.607Z,20
2018-05-13T05:26:01.245Z,20
2018-05-13T05:27:09.893Z,20
2018-05-13T05:28:18.542Z,20
2018-05-13T05:29:27.189Z,20
2018-05-13T05:30:35.837Z,25
2018-05-13T05:31:44.471Z,30
2018-05-13T05:32:53.391Z,40
2018-05-13T05:34:02.301Z,40
2018-05-13T05:35:10.957Z,40
2018-05-13T05:36:19.593Z,40
2018-05-13T05:37:28.249Z,45
2018-05-13T05:38:36.889Z,50
2018-05-13T05:39:45.546Z,55
2018-05-13T05:40:54.454Z,55
2018-05-13T05:42:03.101Z,60
2018-05-13T05:43:12.013Z,65
2018-05-13T05:44:20.667Z,75
2018-05-13T05:45:29.311Z,85
2018-05-13T05:46:37.951Z,85
2018-05-13T05:47:46.594Z,90
2018-05-13T05:48:55.237Z,95
2018-05-13T05:50:03.897Z,100
2018-05-13T05:51:12.537Z,100
2018-05-13T05:52:21.188Z,100
2018-05-13T05:53:29.830Z,100
2018-05-13T05:54:38.751Z,105
2018-05-13T05:55:47.398Z,115
2018-05-13T05:56:56.049Z,115
2018-05-13T05:58:04.686Z,115
2018-05-13T05:59:13.340Z,125
2018-05-13T06:00:21.983Z,135
2018-05-13T06:01:30.634Z,135
2018-05-13T06:02:39.801Z,145
2018-05-13T06:03:48.713Z,155
2018-05-13T06:04:57.363Z,150
2018-05-13T06:06:06.008Z,150
2018-05-13T06:07:14.659Z,155
2018-05-13T06:08:23.294Z,165
2018-05-13T06:09:31.943Z,170
2018-05-13T06:10:40.582Z,175
2018-05-13T06:11:49.237Z,190
2018-05-13T06:12:57.874Z,195
2018-05-13T06:14:06.882Z,205
2018-05-13T06:15:15.523Z,210
2018-05-13T06:16:24.455Z,220
2018-05-13T06:17:33.355Z,220
2018-05-13T06:18:42.006Z,220
2018-05-13T06:19:50.653Z,220
2018-05-13T06:20:59.570Z,215
2018-05-13T06:22:08.219Z,210
2018-05-13T06:23:16.866Z,205
2018-05-13T06:24:25.511Z,200
2018-05-13T06:25:34.155Z,195
2018-05-13T06:26:42.807Z,190
2018-05-13T06:27:51.717Z,190
2018-05-13T06:29:00.629Z,190
2018-05-13T06:30:09.270Z,185
2018-05-13T06:31:18.200Z,185
2018-05-13T06:32:26.850Z,185
2018-05-13T06:33:35.499Z,185
2018-05-13T06:34:44.142Z,185
2018-05-13T06:35:52.800Z,190
2018-05-13T06:37:01.722Z,190
2018-05-13T06:38:10.632Z,190
2018-05-13T06:39:19.285Z,190
2018-05-13T06:40:27.924Z,190
2018-05-13T06:41:36.574Z,190
2018-05-13T06:42:45.223Z,190
2018-05-13T06:43:53.872Z,190
2018-05-13T06:45:02.515Z,175
2018-05-13T06:46:11.430Z,185
2018-05-13T06:47:20.078Z,185
2018-05-13T06:48:28.730Z,175
2018-05-13T06:49:37.374Z,180
2018-05-13T06:50:46.025Z,195
2018-05-13T06:51:54.671Z,210
2018-05-13T06:53:03.586Z,215
2018-05-13T06:54:12.227Z,230
2018-05-13T06:55:20.877Z,245
2018-05-13T06:56:29.526Z,280
2018-05-13T06:57:38.441Z,275
2018-05-13T06:58:47.088Z,280
2018-05-13T06:59:56.006Z,290
2018-05-13T07:01:04.651Z,275
2018-05-13T07:02:13.299Z,270
2018-05-13T07:03:22.222Z,275
2018-05-13T07:04:30.871Z,285
2018-05-13T07:05:39.519Z,270
2018-05-13T07:06:48.165Z,245
2018-05-13T07:07:56.822Z,245
2018-05-13T07:09:05.475Z,230
2018-05-13T07:10:14.125Z,225
2018-05-13T07:11:22.844Z,230
2018-05-13T07:12:31.416Z,235
2018-05-13T07:13:40.063Z,230
2018-05-13T07:14:48.714Z,225
2018-05-13T07:15:57.362Z,225
2018-05-13T07:17:06.016Z,220
2018-05-13T07:18:14.666Z,220
2018-05-13T07:19:23.315Z,215
2018-05-13T07:20:32.506Z,215
2018-05-13T07:21:41.164Z,210
2018-05-13T07:22:49.808Z,215
2018-05-13T07:23:58.458Z,220
2018-05-13T07:25:07.102Z,215
2018-05-13T07:26:15.754Z,220
2018-05-13T07:27:24.405Z,220
2018-05-13T07:28:33.058Z,220
2018-05-13T07:29:41.768Z,220
2018-05-13T07:30:50.627Z,220
2018-05-13T07:31:59.273Z,220
2018-05-13T07:33:07.927Z,220
2018-05-13T07:34:16.570Z,220
2018-05-13T07:35:25.221Z,220
2018-05-13T07:36:33.869Z,205
2018-05-13T07:37:42.524Z,200
2018-05-13T07:38:51.441Z,195
2018-05-13T07:40:00.089Z,210
2018-05-13T07:41:08.736Z,215
2018-05-13T07:42:17.385Z,215
2018-05-13T07:43:26.145Z,205
2018-05-13T07:44:35.084Z,200
2018-05-13T07:45:43.738Z,205
2018-05-13T07:46:52.385Z,205
2018-05-13T07:48:01.303Z,205
2018-05-13T07:49:09.947Z,200
2018-05-13T07:50:18.598Z,195
2018-05-13T07:51:27.511Z,200
2018-05-13T07:52:36.163Z,205
2018-05-13T07:53:44.811Z,205
2018-05-13T07:54:53.459Z,205
2018-05-13T07:56:02.105Z,205
2018-05-13T07:57:11.025Z,205
2018-05-13T07:58:19.940Z,210
2018-05-13T07:59:28.591Z,215
2018-05-13T08:00:37.505Z,215
2018-05-13T08:01:46.152Z,220
2018-05-13T08:02:54.807Z,225
2018-05-13T08:04:03.460Z,230
2018-05-13T08:05:12.380Z,230
2018-05-13T08:06:21.020Z,235
2018-05-13T08:07:29.674Z,230
2018-05-13T08:08:38.621Z,225
2018-05-13T08:09:47.540Z,225
2018-05-13T08:10:56.182Z,235
2018-05-13T08:12:04.834Z,240
2018-05-13T08:13:13.483Z,240
2018-05-13T08:14:22.400Z,240
2018-05-13T08:15:31.049Z,240
2018-05-13T08:16:39.694Z,240
2018-05-13T08:17:48.347Z,235
2018-05-13T08:18:56.992Z,235
2018-05-13T08:20:05.652Z,230
2018-05-13T08:21:14.292Z,220
2018-05-13T08:22:22.947Z,225
2018-05-13T08:23:31.862Z,230
2018-05-13T08:24:40.520Z,225
2018-05-13T08:25:49.163Z,230
2018-05-13T08:26:57.815Z,235
2018-05-13T08:28:06.459Z,235
2018-05-13T08:29:15.118Z,230
2018-05-13T08:30:24.028Z,225
2018-05-13T08:31:32.673Z,220
2018-05-13T08:32:41.319Z,225
2018-05-13T08:33:50.234Z,230
2018-05-13T08:34:58.897Z,230
2018-05-13T08:36:07.545Z,230
2018-05-13T08:37:16.199Z,235
2018-05-13T08:38:24.839Z,235
2018-05-13T08:39:33.497Z,235
2018-05-13T08:40:42.144Z,240
2018-05-13T08:41:50.804Z,245
2018-05-13T08:42:59.443Z,240
2018-05-13T08:44:08.104Z,245
2018-05-13T08:45:16.753Z,250
2018-05-13T08:46:25.406Z,250
2018-05-13T08:47:34.047Z,250
2018-05-13T08:48:42.703Z,250
2018-05-13T08:49:51.361Z,250
2018-05-13T08:51:00.012Z,245
2018-05-13T08:52:08.664Z,235
2018-05-13T08:53:17.307Z,235
2018-05-13T08:54:25.965Z,235
2018-05-13T08:55:34.608Z,235
2018-05-13T08:56:43.265Z,235
2018-05-13T08:57:51.910Z,230
2018-05-13T08:59:00.831Z,235
2018-05-13T09:00:09.741Z,225
2018-05-13T09:01:18.403Z,225
2018-05-13T09:02:27.830Z,230
2018-05-13T09:03:36.751Z,235
2018-05-13T09:04:45.398Z,235
2018-05-13T09:05:54.058Z,240
2018-05-13T09:07:02.706Z,245
2018-05-13T09:08:11.619Z,245
2018-05-13T09:09:20.267Z,255
2018-05-13T09:10:28.920Z,260
2018-05-13T09:11:37.574Z,260
2018-05-13T09:12:46.489Z,260
2018-05-13T09:13:55.142Z,260
2018-05-13T09:15:04.061Z,260
2018-05-13T09:16:12.724Z,260
2018-05-13T09:17:21.368Z,255
2018-05-13T09:18:30.026Z,255
2018-05-13T09:19:38.668Z,250
2018-05-13T09:20:48.248Z,250
2018-05-13T09:21:56.805Z,255
2018-05-13T09:23:05.460Z,250
2018-05-13T09:24:14.103Z,230
2018-05-13T09:25:22.761Z,250
2018-05-13T09:26:31.499Z,225
2018-05-13T09:27:40.417Z,200
2018-05-13T09:28:49.350Z,220
2018-05-13T09:29:57.979Z,245
2018-05-13T09:31:06.634Z,245
2018-05-13T09:32:15.282Z,215
2018-05-13T09:33:23.944Z,220
2018-05-13T09:34:32.583Z,245
2018-05-13T09:35:41.242Z,245
2018-05-13T09:36:50.148Z,245
2018-05-13T09:37:59.080Z,250
2018-05-13T09:39:07.732Z,250
2018-05-13T09:40:16.918Z,255
2018-05-13T09:41:25.563Z,250
2018-05-13T09:42:34.226Z,255
2018-05-13T09:43:42.876Z,255
2018-05-13T09:44:51.520Z,255
2018-05-13T09:46:00.180Z,250
2018-05-13T09:47:09.092Z,250
2018-05-13T09:48:17.752Z,250
2018-05-13T09:49:26.399Z,245
2018-05-13T09:50:35.054Z,235
2018-05-13T09:51:43.692Z,240
2018-05-13T09:52:52.354Z,235
2018-05-13T09:54:01.000Z,240
2018-05-13T09:55:09.655Z,245
2018-05-13T09:56:18.301Z,250
2018-05-13T09:57:26.958Z,240
2018-05-13T09:58:35.608Z,215
2018-05-13T09:59:44.259Z,215
2018-05-13T10:00:52.903Z,215
2018-05-13T10:02:01.558Z,215
2018-05-13T10:03:10.478Z,235
2018-05-13T10:04:19.130Z,255
2018-05-13T10:05:27.786Z,275
2018-05-13T10:06:36.484Z,300
2018-05-13T10:07:45.088Z,305
2018-05-13T10:08:53.737Z,285
2018-05-13T10:10:02.404Z,255
2018-05-13T10:11:11.043Z,245
2018-05-13T10:12:19.696Z,270
2018-05-13T10:13:28.343Z,275
2018-05-13T10:14:37.005Z,275
2018-05-13T10:15:45.917Z,275
2018-05-13T10:16:54.571Z,260
2018-05-13T10:18:03.224Z,235
2018-05-13T10:19:12.143Z,235
2018-05-13T10:20:20.795Z,225
2018-05-13T10:21:29.449Z,255
2018-05-13T10:22:38.098Z,265
2018-05-13T10:23:47.011Z,240
2018-05-13T10:24:55.666Z,255
2018-05-13T10:26:04.319Z,250
2018-05-13T10:27:13.057Z,240
2018-05-13T10:28:21.619Z,255
2018-05-13T10:29:30.273Z,270
2018-05-13T10:30:38.929Z,270
2018-05-13T10:31:47.590Z,275
2018-05-13T10:32:56.497Z,265
2018-05-13T10:34:05.156Z,275
2018-05-13T10:35:13.805Z,280
2018-05-13T10:36:22.760Z,285
2018-05-13T10:37:31.656Z,275
2018-05-13T10:38:40.311Z,270
2018-05-13T10:39:48.968Z,270
2018-05-13T10:40:57.623Z,260
2018-05-13T10:42:06.280Z,265
2018-05-13T10:43:14.928Z,260
2018-05-13T10:44:23.579Z,250
2018-05-13T10:45:32.230Z,250
2018-05-13T10:46:40.889Z,250
2018-05-13T10:47:49.538Z,250
2018-05-13T10:48:58.188Z,245
2018-05-13T10:50:06.841Z,245
2018-05-13T10:51:15.832Z,230
2018-05-13T10:52:24.479Z,235
2018-05-13T10:53:33.133Z,235
2018-05-13T10:54:41.783Z,245
2018-05-13T10:55:50.719Z,255
2018-05-13T10:56:59.370Z,255
2018-05-13T10:58:08.022Z,255
2018-05-13T10:59:16.671Z,250
2018-05-13T11:00:25.323Z,250
2018-05-13T11:01:33.981Z,245
2018-05-13T11:02:42.640Z,245
2018-05-13T11:03:51.292Z,260
2018-05-13T11:04:59.945Z,250
2018-05-13T11:06:08.862Z,255
2018-05-13T11:07:17.776Z,260
2018-05-13T11:08:26.717Z,265
2018-05-13T11:09:35.363Z,250
2018-05-13T11:10:44.019Z,265
2018-05-13T11:11:52.669Z,250
2018-05-13T11:13:01.322Z,260
2018-05-13T11:14:09.979Z,260
2018-05-13T11:15:18.630Z,270
2018-05-13T11:16:27.285Z,265
2018-05-13T11:17:35.935Z,265
2018-05-13T11:18:44.589Z,255
2018-05-13T11:19:53.246Z,265
2018-05-13T11:21:02.169Z,265
2018-05-13T11:22:10.823Z,270
2018-05-13T11:23:19.472Z,275
2018-05-13T11:24:28.134Z,260
2018-05-13T11:25:36.783Z,280
2018-05-13T11:26:45.728Z,285
2018-05-13T11:27:54.353Z,275
2018-05-13T11:29:03.014Z,280
2018-05-13T11:30:11.665Z,270
2018-05-13T11:31:20.321Z,250
2018-05-13T11:32:28.972Z,275
2018-05-13T11:33:37.629Z,280
2018-05-13T11:34:46.283Z,275
2018-05-13T11:35:55.201Z,270
2018-05-13T11:37:03.861Z,275
2018-05-13T11:38:12.506Z,270
2018-05-13T11:39:21.159Z,265
2018-05-13T11:40:29.812Z,275
2018-05-13T11:41:38.472Z,275
2018-05-13T11:42:47.120Z,265
2018-05-13T11:43:56.043Z,270
2018-05-13T11:45:04.702Z,280
2018-05-13T11:46:13.354Z,295
2018-05-13T11:47:22.002Z,270
2018-05-13T11:48:30.920Z,310
2018-05-13T11:49:39.571Z,315
2018-05-13T11:50:48.499Z,295
2018-05-13T11:51:57.147Z,310
2018-05-13T11:53:05.802Z,255
2018-05-13T11:54:14.454Z,295
2018-05-13T11:55:23.099Z,305
2018-05-13T11:56:31.819Z,295
2018-05-13T11:57:40.413Z,280
2018-05-13T11:58:49.067Z,280
2018-05-13T11:59:57.715Z,300
2018-05-13T12:01:06.375Z,310
2018-05-13T12:02:15.110Z,325
2018-05-13T12:03:23.685Z,325
2018-05-13T12:04:32.333Z,320
2018-05-13T12:05:40.992Z,320
2018-05-13T12:06:49.648Z,315
2018-05-13T12:07:58.300Z,315
2018-05-13T12:09:06.951Z,310
2018-05-13T12:10:15.871Z,295
2018-05-13T12:11:24.524Z,275
2018-05-13T12:12:33.456Z,285
2018-05-13T12:13:42.116Z,270
2018-05-13T12:14:50.762Z,265
2018-05-13T12:15:59.420Z,270
2018-05-13T12:17:08.066Z,290
2018-05-13T12:18:16.997Z,290
2018-05-13T12:19:25.639Z,295
2018-05-13T12:20:34.296Z,315
2018-05-13T12:21:42.946Z,340
2018-05-13T12:22:51.869Z,360
2018-05-13T12:24:00.512Z,360
2018-05-13T12:25:09.168Z,385
2018-05-13T12:26:17.819Z,410
2018-05-13T12:27:26.481Z,425
2018-05-13T12:28:35.135Z,450
2018-05-13T12:29:43.786Z,475
2018-05-13T12:30:52.443Z,495
2018-05-13T12:32:01.883Z,500
2018-05-13T12:33:10.547Z,495
2018-05-13T12:34:19.193Z,505
2018-05-13T12:35:27.851Z,500
2018-05-13T12:36:36.759Z,495
2018-05-13T12:37:45.435Z,485
2018-05-13T12:38:54.073Z,460
2018-05-13T12:40:02.742Z,470
2018-05-13T12:41:11.392Z,455
2018-05-13T12:42:20.061Z,425
2018-05-13T12:43:28.977Z,405
2018-05-13T12:44:37.634Z,385
2018-05-13T12:45:46.280Z,365
2018-05-13T12:46:54.938Z,360
2018-05-13T12:48:03.598Z,370
2018-05-13T12:49:12.253Z,425
2018-05-13T12:50:20.911Z,485
2018-05-13T12:51:29.561Z,460
2018-05-13T12:52:38.217Z,435
2018-05-13T12:53:46.867Z,475
2018-05-13T12:54:55.532Z,430
2018-05-13T12:56:04.179Z,415
2018-05-13T12:57:12.837Z,380
2018-05-13T12:58:21.557Z,285
2018-05-13T12:59:30.154Z,235
2018-05-13T13:00:38.795Z,150
2018-05-13T13:01:47.457Z,105
2018-05-13T13:02:56.121Z,75
2018-05-13T13:04:05.039Z,50
2018-05-13T13:05:13.692Z,35
2018-05-13T13:06:22.349Z,30
2018-05-13T13:07:30.995Z,25
2018-05-13T13:08:39.643Z,30
2018-05-13T13:09:48.307Z,25
2018-05-13T13:10:56.955Z,25
2018-05-13T13:12:05.607Z,20
2018-05-13T13:13:14.260Z,20
2018-05-13T13:14:22.916Z,15
2018-05-13T13:15:31.560Z,15
2018-05-13T13:16:40.212Z,10
2018-05-13T13:17:48.860Z,10
2018-05-13T13:18:57.517Z,10
2018-05-13T13:20:06.212Z,10
2018-05-13T13:21:14.817Z,10
2018-05-13T13:22:23.465Z,10
2018-05-13T13:23:32.117Z,10
2018-05-13T13:24:40.771Z,10
2018-05-13T13:25:49.428Z,15
2018-05-13T13:26:58.067Z,20
2018-05-13T13:28:06.714Z,25
2018-05-13T13:29:15.364Z,25
2018-05-13T13:30:24.668Z,35
2018-05-13T13:31:33.298Z,40
2018-05-13T13:32:41.940Z,45
2018-05-13T13:33:50.588Z,55
2018-05-13T13:34:59.504Z,60
2018-05-13T13:36:08.154Z,65
2018-05-13T13:37:17.058Z,75
2018-05-13T13:38:25.707Z,75
2018-05-13T13:39:34.358Z,70
2018-05-13T13:40:43.008Z,60
2018-05-13T13:41:51.922Z,50
2018-05-13T13:43:00.567Z,40
2018-05-13T13:44:09.211Z,40
2018-05-13T13:45:17.857Z,40
2018-05-13T13:46:26.507Z,40
2018-05-13T13:47:35.153Z,45
2018-05-13T13:48:43.803Z,50
2018-05-13T13:49:52.715Z,55
2018-05-13T13:51:01.369Z,60
2018-05-13T13:52:10.016Z,70
2018-05-13T13:53:18.665Z,75
2018-05-13T13:54:27.304Z,85
2018-05-13T13:55:35.951Z,95
2018-05-13T13:56:44.595Z,105
2018-05-13T13:57:53.247Z,110
2018-05-13T13:59:01.890Z,115
2018-05-13T14:00:10.539Z,115
2018-05-13T14:01:19.186Z,115
2018-05-13T14:02:27.835Z,110
2018-05-13T14:03:36.751Z,105
2018-05-13T14:04:45.394Z,95
2018-05-13T14:05:54.041Z,80
2018-05-13T14:07:02.688Z,75
2018-05-13T14:08:11.339Z,70
2018-05-13T14:09:19.981Z,60
2018-05-13T14:10:28.634Z,55
2018-05-13T14:11:37.276Z,50
2018-05-13T14:12:45.933Z,45
2018-05-13T14:13:54.568Z,40
2018-05-13T14:15:03.272Z,35
2018-05-13T14:16:11.867Z,35
2018-05-13T14:17:20.521Z,30
2018-05-13T14:18:29.450Z,25
2018-05-13T14:19:38.358Z,25
2018-05-13T14:20:47.002Z,20
2018-05-13T14:21:55.652Z,20
2018-05-13T14:23:04.569Z,20
2018-05-13T14:24:13.212Z,15
2018-05-13T14:25:22.128Z,15
2018-05-13T14:26:30.767Z,15
2018-05-13T14:27:39.420Z,15
2018-05-13T14:28:48.069Z,15
2018-05-13T14:29:56.719Z,15
2018-05-13T14:31:05.357Z,15
2018-05-13T14:32:14.011Z,15
2018-05-13T14:33:22.655Z,10
2018-05-13T14:34:31.303Z,10
2018-05-13T14:35:39.940Z,10
2018-05-13T14:36:48.590Z,5
2018-05-13T14:37:57.333Z,5
2018-05-13T14:39:14.700Z,5
2018-05-13T14:40:23.347Z,10
2018-05-13T14:41:31.987Z,10
2018-05-13T14:42:40.637Z,10
2018-05-13T14:43:49.282Z,10
2018-05-13T14:44:57.941Z,10
2018-05-13T14:46:06.839Z,5
2018-05-13T14:47:15.491Z,5
2018-05-13T14:48:24.136Z,5
2018-05-13T14:49:32.793Z,5
2018-05-13T14:50:41.428Z,5
2018-05-13T14:51:50.079Z,5
2018-05-13T14:52:58.987Z,5
2018-05-13T14:54:07.653Z,5
2018-05-13T14:55:16.823Z,5
2018-05-13T14:56:25.471Z,5
2018-05-13T14:57:34.108Z,5
2018-05-13T14:58:42.752Z,5
2018-05-13T14:59:51.484Z,5
2018-05-13T15:01:00.050Z,5
2018-05-13T15:02:08.702Z,5
2018-05-13T15:03:17.604Z,5
2018-05-13T15:04:26.262Z,5
2018-05-13T15:05:34.902Z,5
2018-05-13T15:06:43.555Z,10
2018-05-13T15:07:52.203Z,10
2018-05-13T15:09:00.843Z,10
2018-05-13T15:10:09.486Z,10
2018-05-13T15:11:18.131Z,10
2018-05-13T15:12:26.785Z,10
2018-05-13T15:13:35.427Z,15
2018-05-13T15:14:44.068Z,15
2018-05-13T15:15:52.712Z,15
2018-05-13T15:17:01.356Z,15
2018-05-13T15:18:10.010Z,15
2018-05-13T15:19:18.651Z,15
2018-05-13T15:20:27.302Z,15
2018-05-13T15:21:35.940Z,15
2018-05-13T15:22:44.595Z,20
2018-05-13T15:23:53.237Z,20
2018-05-13T15:25:01.888Z,15
2018-05-13T15:26:10.792Z,20
2018-05-13T15:27:19.447Z,20
2018-05-13T15:28:28.091Z,15
2018-05-13T15:29:36.744Z,20
2018-05-13T15:30:45.377Z,20
2018-05-13T15:31:54.025Z,20
2018-05-13T15:33:02.674Z,20
2018-05-13T15:34:11.324Z,20
2018-05-13T15:35:19.979Z,20
2018-05-13T15:36:28.888Z,25
2018-05-13T15:37:37.807Z,25
2018-05-13T15:38:46.708Z,25
2018-05-13T15:39:55.364Z,25
2018-05-13T15:41:04.001Z,25
2018-05-13T15:42:12.654Z,25
2018-05-13T15:43:21.755Z,25
2018-05-13T15:44:31.037Z,25
2018-05-13T15:45:39.672Z,30
2018-05-13T15:46:48.321Z,30
2018-05-13T15:47:56.970Z,35
2018-05-13T15:49:05.706Z,35
2018-05-13T15:50:14.809Z,40
2018-05-13T15:51:23.459Z,40
2018-05-13T15:52:32.357Z,45
2018-05-13T15:53:41.003Z,45
2018-05-13T15:54:50.009Z,50
2018-05-13T15:55:58.595Z,50
2018-05-13T15:57:07.244Z,55
2018-05-13T15:58:15.886Z,55
2018-05-13T15:59:24.539Z,60
2018-05-13T16:00:33.178Z,65
2018-05-13T16:01:41.828Z,65
2018-05-13T16:02:50.462Z,65
2018-05-13T16:03:59.386Z,70
2018-05-13T16:05:08.029Z,70
2018-05-13T16:06:16.685Z,75
2018-05-13T16:07:25.318Z,75
2018-05-13T16:08:33.966Z,80
2018-05-13T16:09:42.613Z,80
2018-05-13T16:10:51.260Z,75
2018-05-13T16:11:59.907Z,75
2018-05-13T16:13:08.551Z,75
2018-05-13T16:14:17.195Z,70